Ambler, Alaska
Current Conditions -  °F | °C
As of 7:56 PM on Thursday 30 Oct 2014 (Local Time) from PAFM Reporting Station
Clear Clear  
Wind Chill: -4°   Ceiling: Unl
Heat Index: -4°   Visibility: 10mi
Dew Point: -9°   Wind: 0mph
Humidity: 78%   Direction: NA
Pressure: 29.87"   Gusts: NA
Location:  67.09°N, 157.85°W
Report Text: PAFM 310356Z AUTO 00000KT 10SM CLR M20/M23 A2987 RMK AO1
Loading
Personal Weather Stations






























Interactive Weather Map New forecast layout! Learn more

10-Day Weather Forecast

Advertisements
Track Severe Weather on mobile